Flugplatz St. Michaelisdonn

Für EDXM sind keine METAR/TAF Berichte vorhanden.
Es werden die Flugwettermeldungen vom Flugplatz Nordholz Airport in 39 km Entfernung angezeigt.

Bericht für ETMN

vom 20.10. um 02:20 UTC

Wind 14 kt aus 220°

Sichtweite 10 km oder mehr

gering bewölkt in 3000 ft

aufgebrochene Bewölkung in 4500 ft

Temperatur 16.0°C

Taupunkt 14.0°C

Luftfeuchtigkeit 88%

Luftdruck 1005 hPa

ETMN 200220Z 22014KT 9999 FEW030 BKN045 16/14 Q1005 BLU
Keine Prognose (TAF) verfügbar.
Impressum